sensor_id;sensor_type;location;lat;lon;timestamp;P1;durP1;ratioP1;P2;durP2;ratioP2
4232;SDS011;2130;48.472;11.934;2022-11-15T00:00:11;6.60;;;2.23;;
4232;SDS011;2130;48.472;11.934;2022-11-15T00:02:57;4.40;;;2.57;;
4232;SDS011;2130;48.472;11.934;2022-11-15T00:05:44;3.40;;;2.40;;
4232;SDS011;2130;48.472;11.934;2022-11-15T00:08:32;3.73;;;2.30;;
4232;SDS011;2130;48.472;11.934;2022-11-15T00:11:20;4.57;;;2.00;;
4232;SDS011;2130;48.472;11.934;2022-11-15T00:14:07;6.90;;;2.30;;
4232;SDS011;2130;48.472;11.934;2022-11-15T00:16:54;3.70;;;2.00;;
4232;SDS011;2130;48.472;11.934;2022-11-15T00:19:41;5.07;;;2.17;;
4232;SDS011;2130;48.472;11.934;2022-11-15T00:22:30;5.17;;;2.20;;
4232;SDS011;2130;48.472;11.934;2022-11-15T00:25:18;3.97;;;1.73;;
4232;SDS011;2130;48.472;11.934;2022-11-15T00:28:06;3.50;;;2.07;;
4232;SDS011;2130;48.472;11.934;2022-11-15T00:30:53;3.43;;;2.10;;
4232;SDS011;2130;48.472;11.934;2022-11-15T00:33:39;5.03;;;2.40;;
4232;SDS011;2130;48.472;11.934;2022-11-15T00:36:32;4.67;;;1.80;;
4232;SDS011;2130;48.472;11.934;2022-11-15T00:39:18;3.30;;;1.90;;
4232;SDS011;2130;48.472;11.934;2022-11-15T00:42:05;3.17;;;1.60;;
4232;SDS011;2130;48.472;11.934;2022-11-15T00:44:53;4.30;;;2.10;;
4232;SDS011;2130;48.472;11.934;2022-11-15T00:47:40;4.33;;;2.40;;
4232;SDS011;2130;48.472;11.934;2022-11-15T00:50:27;4.53;;;1.80;;
4232;SDS011;2130;48.472;11.934;2022-11-15T00:53:34;6.40;;;2.20;;
4232;SDS011;2130;48.472;11.934;2022-11-15T00:56:21;3.93;;;2.20;;
4232;SDS011;2130;48.472;11.934;2022-11-15T00:59:08;4.10;;;2.37;;
4232;SDS011;2130;48.472;11.934;2022-11-15T01:01:56;9.53;;;2.43;;
4232;SDS011;2130;48.472;11.934;2022-11-15T01:04:43;3.93;;;2.40;;
4232;SDS011;2130;48.472;11.934;2022-11-15T01:07:30;8.03;;;2.20;;
4232;SDS011;2130;48.472;11.934;2022-11-15T01:10:17;3.00;;;1.80;;
4232;SDS011;2130;48.472;11.934;2022-11-15T01:13:03;4.00;;;1.87;;
4232;SDS011;2130;48.472;11.934;2022-11-15T01:15:50;4.07;;;2.20;;
4232;SDS011;2130;48.472;11.934;2022-11-15T01:18:38;3.27;;;1.90;;
4232;SDS011;2130;48.472;11.934;2022-11-15T01:21:25;3.90;;;2.20;;
4232;SDS011;2130;48.472;11.934;2022-11-15T01:24:12;5.00;;;2.90;;
4232;SDS011;2130;48.472;11.934;2022-11-15T01:26:59;4.40;;;2.40;;
4232;SDS011;2130;48.472;11.934;2022-11-15T01:29:46;5.00;;;2.33;;
4232;SDS011;2130;48.472;11.934;2022-11-15T01:32:33;7.00;;;3.07;;
4232;SDS011;2130;48.472;11.934;2022-11-15T01:35:21;9.73;;;3.30;;
4232;SDS011;2130;48.472;11.934;2022-11-15T01:38:08;5.70;;;2.90;;
4232;SDS011;2130;48.472;11.934;2022-11-15T01:40:54;8.77;;;3.20;;
4232;SDS011;2130;48.472;11.934;2022-11-15T01:43:41;4.83;;;2.73;;
4232;SDS011;2130;48.472;11.934;2022-11-15T01:46:29;4.33;;;2.63;;
4232;SDS011;2130;48.472;11.934;2022-11-15T01:49:17;6.27;;;2.33;;
4232;SDS011;2130;48.472;11.934;2022-11-15T01:52:09;4.07;;;2.20;;
4232;SDS011;2130;48.472;11.934;2022-11-15T01:54:58;6.17;;;2.50;;
4232;SDS011;2130;48.472;11.934;2022-11-15T01:57:50;4.60;;;1.93;;
4232;SDS011;2130;48.472;11.934;2022-11-15T02:00:39;3.70;;;2.10;;
4232;SDS011;2130;48.472;11.934;2022-11-15T02:03:28;5.90;;;2.60;;
4232;SDS011;2130;48.472;11.934;2022-11-15T02:06:19;5.80;;;2.10;;
4232;SDS011;2130;48.472;11.934;2022-11-15T02:09:08;3.70;;;2.20;;
4232;SDS011;2130;48.472;11.934;2022-11-15T02:11:55;6.03;;;2.20;;
4232;SDS011;2130;48.472;11.934;2022-11-15T02:14:42;4.43;;;1.93;;
4232;SDS011;2130;48.472;11.934;2022-11-15T02:17:34;5.40;;;2.07;;
4232;SDS011;2130;48.472;11.934;2022-11-15T02:23:58;7.10;;;2.63;;
4232;SDS011;2130;48.472;11.934;2022-11-15T02:30:28;5.33;;;2.10;;
4232;SDS011;2130;48.472;11.934;2022-11-15T02:33:26;6.97;;;2.63;;
4232;SDS011;2130;48.472;11.934;2022-11-15T02:36:18;5.20;;;2.37;;
4232;SDS011;2130;48.472;11.934;2022-11-15T02:39:15;7.00;;;2.60;;
4232;SDS011;2130;48.472;11.934;2022-11-15T02:42:07;7.10;;;2.50;;
4232;SDS011;2130;48.472;11.934;2022-11-15T02:45:17;4.77;;;2.20;;
4232;SDS011;2130;48.472;11.934;2022-11-15T02:48:06;6.50;;;2.53;;
4232;SDS011;2130;48.472;11.934;2022-11-15T02:50:53;8.60;;;2.20;;
4232;SDS011;2130;48.472;11.934;2022-11-15T02:53:40;6.00;;;2.37;;
4232;SDS011;2130;48.472;11.934;2022-11-15T02:56:27;5.00;;;2.13;;
4232;SDS011;2130;48.472;11.934;2022-11-15T02:59:18;5.73;;;2.20;;
4232;SDS011;2130;48.472;11.934;2022-11-15T03:02:16;7.10;;;2.57;;
4232;SDS011;2130;48.472;11.934;2022-11-15T03:05:12;12.37;;;2.60;;
4232;SDS011;2130;48.472;11.934;2022-11-15T03:08:04;6.13;;;2.73;;
4232;SDS011;2130;48.472;11.934;2022-11-15T03:10:57;6.20;;;2.43;;
4232;SDS011;2130;48.472;11.934;2022-11-15T03:13:53;5.40;;;2.30;;
4232;SDS011;2130;48.472;11.934;2022-11-15T03:16:44;5.23;;;2.30;;
4232;SDS011;2130;48.472;11.934;2022-11-15T03:19:34;8.00;;;2.63;;
4232;SDS011;2130;48.472;11.934;2022-11-15T03:22:28;4.17;;;1.83;;
4232;SDS011;2130;48.472;11.934;2022-11-15T03:25:17;5.97;;;2.20;;
4232;SDS011;2130;48.472;11.934;2022-11-15T03:28:05;7.33;;;2.50;;
4232;SDS011;2130;48.472;11.934;2022-11-15T03:31:02;7.60;;;2.90;;
4232;SDS011;2130;48.472;11.934;2022-11-15T03:34:11;6.00;;;2.13;;
4232;SDS011;2130;48.472;11.934;2022-11-15T03:37:01;7.37;;;2.27;;
4232;SDS011;2130;48.472;11.934;2022-11-15T03:39:49;5.40;;;2.40;;
4232;SDS011;2130;48.472;11.934;2022-11-15T03:42:36;5.10;;;2.10;;
4232;SDS011;2130;48.472;11.934;2022-11-15T03:45:27;5.67;;;2.03;;
4232;SDS011;2130;48.472;11.934;2022-11-15T03:48:16;5.73;;;2.60;;
4232;SDS011;2130;48.472;11.934;2022-11-15T03:51:06;5.83;;;2.77;;
4232;SDS011;2130;48.472;11.934;2022-11-15T03:53:53;5.10;;;2.20;;
4232;SDS011;2130;48.472;11.934;2022-11-15T03:56:41;5.17;;;2.37;;
4232;SDS011;2130;48.472;11.934;2022-11-15T03:59:28;5.60;;;2.40;;
4232;SDS011;2130;48.472;11.934;2022-11-15T04:02:16;8.30;;;2.73;;
4232;SDS011;2130;48.472;11.934;2022-11-15T04:05:03;6.10;;;2.50;;
4232;SDS011;2130;48.472;11.934;2022-11-15T04:07:50;6.97;;;2.57;;
4232;SDS011;2130;48.472;11.934;2022-11-15T04:10:37;6.93;;;3.20;;
4232;SDS011;2130;48.472;11.934;2022-11-15T04:13:25;6.00;;;3.07;;
4232;SDS011;2130;48.472;11.934;2022-11-15T04:16:11;8.03;;;2.80;;
4232;SDS011;2130;48.472;11.934;2022-11-15T04:18:58;8.40;;;2.97;;
4232;SDS011;2130;48.472;11.934;2022-11-15T04:22:17;7.27;;;2.80;;
4232;SDS011;2130;48.472;11.934;2022-11-15T04:25:21;6.10;;;2.27;;
4232;SDS011;2130;48.472;11.934;2022-11-15T04:28:14;6.83;;;2.37;;
4232;SDS011;2130;48.472;11.934;2022-11-15T04:31:02;6.17;;;2.50;;
4232;SDS011;2130;48.472;11.934;2022-11-15T04:33:49;6.70;;;2.20;;
4232;SDS011;2130;48.472;11.934;2022-11-15T04:36:36;7.63;;;3.43;;
4232;SDS011;2130;48.472;11.934;2022-11-15T04:39:40;5.70;;;2.60;;
4232;SDS011;2130;48.472;11.934;2022-11-15T04:42:27;9.53;;;3.17;;
4232;SDS011;2130;48.472;11.934;2022-11-15T04:45:14;12.43;;;3.10;;
4232;SDS011;2130;48.472;11.934;2022-11-15T04:48:02;7.37;;;3.13;;
4232;SDS011;2130;48.472;11.934;2022-11-15T04:50:49;7.83;;;2.33;;
4232;SDS011;2130;48.472;11.934;2022-11-15T04:53:36;6.53;;;2.30;;
4232;SDS011;2130;48.472;11.934;2022-11-15T04:56:23;8.27;;;2.87;;
4232;SDS011;2130;48.472;11.934;2022-11-15T04:59:10;6.17;;;2.60;;
4232;SDS011;2130;48.472;11.934;2022-11-15T05:01:56;9.60;;;3.63;;
4232;SDS011;2130;48.472;11.934;2022-11-15T05:04:45;5.73;;;2.63;;
4232;SDS011;2130;48.472;11.934;2022-11-15T05:07:31;6.23;;;2.63;;
4232;SDS011;2130;48.472;11.934;2022-11-15T05:10:18;6.13;;;2.67;;
4232;SDS011;2130;48.472;11.934;2022-11-15T05:13:04;5.03;;;1.93;;
4232;SDS011;2130;48.472;11.934;2022-11-15T05:15:51;15.13;;;2.77;;
4232;SDS011;2130;48.472;11.934;2022-11-15T05:18:38;9.73;;;2.87;;
4232;SDS011;2130;48.472;11.934;2022-11-15T05:21:27;7.27;;;2.50;;
4232;SDS011;2130;48.472;11.934;2022-11-15T05:24:15;7.93;;;2.53;;
4232;SDS011;2130;48.472;11.934;2022-11-15T05:27:01;6.07;;;2.50;;
4232;SDS011;2130;48.472;11.934;2022-11-15T05:29:48;6.30;;;2.63;;
4232;SDS011;2130;48.472;11.934;2022-11-15T05:32:35;7.20;;;2.40;;
4232;SDS011;2130;48.472;11.934;2022-11-15T05:35:25;6.00;;;2.50;;
4232;SDS011;2130;48.472;11.934;2022-11-15T05:38:17;11.00;;;2.50;;
4232;SDS011;2130;48.472;11.934;2022-11-15T05:41:04;6.23;;;2.63;;
4232;SDS011;2130;48.472;11.934;2022-11-15T05:43:51;9.10;;;3.50;;
4232;SDS011;2130;48.472;11.934;2022-11-15T05:46:38;12.13;;;3.10;;
4232;SDS011;2130;48.472;11.934;2022-11-15T05:49:26;7.27;;;3.20;;
4232;SDS011;2130;48.472;11.934;2022-11-15T05:52:16;6.97;;;2.70;;
4232;SDS011;2130;48.472;11.934;2022-11-15T05:55:06;7.30;;;2.77;;
4232;SDS011;2130;48.472;11.934;2022-11-15T05:57:54;6.13;;;2.70;;
4232;SDS011;2130;48.472;11.934;2022-11-15T06:00:44;7.20;;;2.87;;
4232;SDS011;2130;48.472;11.934;2022-11-15T06:03:34;10.63;;;2.77;;
4232;SDS011;2130;48.472;11.934;2022-11-15T06:06:21;7.47;;;2.67;;
4232;SDS011;2130;48.472;11.934;2022-11-15T06:09:08;12.03;;;2.70;;
4232;SDS011;2130;48.472;11.934;2022-11-15T06:11:56;6.30;;;2.40;;
4232;SDS011;2130;48.472;11.934;2022-11-15T06:14:43;6.10;;;2.37;;
4232;SDS011;2130;48.472;11.934;2022-11-15T06:17:30;6.30;;;2.50;;
4232;SDS011;2130;48.472;11.934;2022-11-15T06:20:17;7.00;;;2.90;;
4232;SDS011;2130;48.472;11.934;2022-11-15T06:23:04;6.67;;;2.50;;
4232;SDS011;2130;48.472;11.934;2022-11-15T06:25:51;6.93;;;2.00;;
4232;SDS011;2130;48.472;11.934;2022-11-15T06:28:39;6.53;;;2.30;;
4232;SDS011;2130;48.472;11.934;2022-11-15T06:31:26;10.80;;;2.60;;
4232;SDS011;2130;48.472;11.934;2022-11-15T06:34:13;6.63;;;3.27;;
4232;SDS011;2130;48.472;11.934;2022-11-15T06:37:00;7.73;;;3.90;;
4232;SDS011;2130;48.472;11.934;2022-11-15T06:39:48;8.03;;;2.47;;
4232;SDS011;2130;48.472;11.934;2022-11-15T06:42:35;10.13;;;4.37;;
4232;SDS011;2130;48.472;11.934;2022-11-15T06:45:23;7.23;;;3.73;;
4232;SDS011;2130;48.472;11.934;2022-11-15T06:48:09;5.90;;;3.00;;
4232;SDS011;2130;48.472;11.934;2022-11-15T06:50:58;6.10;;;3.03;;
4232;SDS011;2130;48.472;11.934;2022-11-15T06:53:45;9.10;;;3.37;;
4232;SDS011;2130;48.472;11.934;2022-11-15T06:56:33;6.53;;;2.40;;
4232;SDS011;2130;48.472;11.934;2022-11-15T06:59:20;6.43;;;2.47;;
4232;SDS011;2130;48.472;11.934;2022-11-15T07:02:11;9.67;;;2.77;;
4232;SDS011;2130;48.472;11.934;2022-11-15T07:04:58;6.00;;;2.13;;
4232;SDS011;2130;48.472;11.934;2022-11-15T07:07:50;21.23;;;3.03;;
4232;SDS011;2130;48.472;11.934;2022-11-15T07:10:38;5.83;;;2.60;;
4232;SDS011;2130;48.472;11.934;2022-11-15T07:13:25;7.10;;;2.33;;
4232;SDS011;2130;48.472;11.934;2022-11-15T07:16:12;5.13;;;2.40;;
4232;SDS011;2130;48.472;11.934;2022-11-15T07:19:00;5.53;;;2.03;;
4232;SDS011;2130;48.472;11.934;2022-11-15T07:21:47;6.53;;;2.07;;
4232;SDS011;2130;48.472;11.934;2022-11-15T07:24:33;5.40;;;2.07;;
4232;SDS011;2130;48.472;11.934;2022-11-15T07:27:20;7.27;;;2.53;;
4232;SDS011;2130;48.472;11.934;2022-11-15T07:30:08;4.87;;;2.33;;
4232;SDS011;2130;48.472;11.934;2022-11-15T07:32:55;5.90;;;2.30;;
4232;SDS011;2130;48.472;11.934;2022-11-15T07:35:43;6.90;;;2.27;;
4232;SDS011;2130;48.472;11.934;2022-11-15T07:38:33;4.57;;;2.30;;
4232;SDS011;2130;48.472;11.934;2022-11-15T07:41:27;5.50;;;2.43;;
4232;SDS011;2130;48.472;11.934;2022-11-15T07:44:14;6.80;;;2.77;;
4232;SDS011;2130;48.472;11.934;2022-11-15T07:47:01;6.47;;;2.10;;
4232;SDS011;2130;48.472;11.934;2022-11-15T07:49:48;5.47;;;1.90;;
4232;SDS011;2130;48.472;11.934;2022-11-15T07:52:36;6.17;;;2.80;;
4232;SDS011;2130;48.472;11.934;2022-11-15T07:55:24;6.37;;;2.90;;
4232;SDS011;2130;48.472;11.934;2022-11-15T07:58:12;7.03;;;2.97;;
4232;SDS011;2130;48.472;11.934;2022-11-15T08:01:01;5.60;;;2.67;;
4232;SDS011;2130;48.472;11.934;2022-11-15T08:03:49;6.33;;;2.50;;
4232;SDS011;2130;48.472;11.934;2022-11-15T08:06:35;5.93;;;2.67;;
4232;SDS011;2130;48.472;11.934;2022-11-15T08:09:23;16.57;;;2.90;;
4232;SDS011;2130;48.472;11.934;2022-11-15T08:12:10;6.23;;;3.10;;
4232;SDS011;2130;48.472;11.934;2022-11-15T08:14:57;4.80;;;2.23;;
4232;SDS011;2130;48.472;11.934;2022-11-15T08:17:43;6.80;;;3.20;;
4232;SDS011;2130;48.472;11.934;2022-11-15T08:20:30;5.70;;;2.43;;
4232;SDS011;2130;48.472;11.934;2022-11-15T08:23:17;6.47;;;2.97;;
4232;SDS011;2130;48.472;11.934;2022-11-15T08:26:06;5.70;;;2.83;;
4232;SDS011;2130;48.472;11.934;2022-11-15T08:28:53;5.40;;;3.40;;
4232;SDS011;2130;48.472;11.934;2022-11-15T08:31:40;4.83;;;2.80;;
4232;SDS011;2130;48.472;11.934;2022-11-15T08:34:27;6.00;;;3.00;;
4232;SDS011;2130;48.472;11.934;2022-11-15T08:37:14;5.13;;;2.50;;
4232;SDS011;2130;48.472;11.934;2022-11-15T08:40:01;5.07;;;2.80;;
4232;SDS011;2130;48.472;11.934;2022-11-15T08:42:49;5.57;;;3.00;;
4232;SDS011;2130;48.472;11.934;2022-11-15T08:45:36;5.97;;;3.10;;
4232;SDS011;2130;48.472;11.934;2022-11-15T08:48:23;6.57;;;3.00;;
4232;SDS011;2130;48.472;11.934;2022-11-15T08:51:09;6.00;;;2.80;;
4232;SDS011;2130;48.472;11.934;2022-11-15T08:53:56;5.90;;;2.70;;
4232;SDS011;2130;48.472;11.934;2022-11-15T08:56:43;5.10;;;3.00;;
4232;SDS011;2130;48.472;11.934;2022-11-15T08:59:31;7.60;;;3.40;;
4232;SDS011;2130;48.472;11.934;2022-11-15T09:02:18;6.70;;;3.30;;
4232;SDS011;2130;48.472;11.934;2022-11-15T09:05:05;6.03;;;2.93;;
4232;SDS011;2130;48.472;11.934;2022-11-15T09:07:52;4.03;;;2.73;;
4232;SDS011;2130;48.472;11.934;2022-11-15T09:10:40;6.27;;;3.40;;
4232;SDS011;2130;48.472;11.934;2022-11-15T09:13:26;6.83;;;2.97;;
4232;SDS011;2130;48.472;11.934;2022-11-15T09:16:14;3.73;;;2.37;;
4232;SDS011;2130;48.472;11.934;2022-11-15T09:19:01;5.00;;;2.60;;
4232;SDS011;2130;48.472;11.934;2022-11-15T09:21:55;3.80;;;2.20;;
4232;SDS011;2130;48.472;11.934;2022-11-15T09:24:42;4.40;;;2.80;;
4232;SDS011;2130;48.472;11.934;2022-11-15T09:27:29;5.47;;;2.77;;
4232;SDS011;2130;48.472;11.934;2022-11-15T09:30:16;3.63;;;2.43;;
4232;SDS011;2130;48.472;11.934;2022-11-15T09:33:07;6.27;;;2.93;;
4232;SDS011;2130;48.472;11.934;2022-11-15T09:35:54;5.00;;;2.53;;
4232;SDS011;2130;48.472;11.934;2022-11-15T09:38:46;5.57;;;2.77;;
4232;SDS011;2130;48.472;11.934;2022-11-15T09:41:36;5.23;;;3.07;;
4232;SDS011;2130;48.472;11.934;2022-11-15T09:44:45;4.80;;;2.43;;
4232;SDS011;2130;48.472;11.934;2022-11-15T09:47:42;6.40;;;2.77;;
4232;SDS011;2130;48.472;11.934;2022-11-15T09:50:45;8.20;;;3.10;;
4232;SDS011;2130;48.472;11.934;2022-11-15T09:53:19;3.20;;;2.17;;
4232;SDS011;2130;48.472;11.934;2022-11-15T09:56:13;4.30;;;2.77;;
4232;SDS011;2130;48.472;11.934;2022-11-15T09:58:43;4.60;;;2.50;;
4232;SDS011;2130;48.472;11.934;2022-11-15T10:01:17;3.13;;;2.50;;
4232;SDS011;2130;48.472;11.934;2022-11-15T10:03:47;6.83;;;2.77;;
4232;SDS011;2130;48.472;11.934;2022-11-15T10:06:21;3.23;;;2.43;;
4232;SDS011;2130;48.472;11.934;2022-11-15T10:08:53;4.33;;;2.97;;
4232;SDS011;2130;48.472;11.934;2022-11-15T10:11:24;5.87;;;3.17;;
4232;SDS011;2130;48.472;11.934;2022-11-15T10:14:10;5.13;;;2.93;;
4232;SDS011;2130;48.472;11.934;2022-11-15T10:16:48;2.20;;;2.00;;
4232;SDS011;2130;48.472;11.934;2022-11-15T10:19:42;3.63;;;2.30;;
4232;SDS011;2130;48.472;11.934;2022-11-15T10:22:35;3.10;;;2.67;;
4232;SDS011;2130;48.472;11.934;2022-11-15T10:25:10;2.90;;;2.13;;
4232;SDS011;2130;48.472;11.934;2022-11-15T10:27:44;3.50;;;2.50;;
4232;SDS011;2130;48.472;11.934;2022-11-15T10:30:16;4.20;;;2.57;;
4232;SDS011;2130;48.472;11.934;2022-11-15T10:32:46;3.47;;;2.23;;
4232;SDS011;2130;48.472;11.934;2022-11-15T10:35:17;4.33;;;2.87;;
4232;SDS011;2130;48.472;11.934;2022-11-15T10:37:52;4.70;;;2.60;;
4232;SDS011;2130;48.472;11.934;2022-11-15T10:40:32;3.90;;;2.50;;
4232;SDS011;2130;48.472;11.934;2022-11-15T10:43:06;3.40;;;2.50;;
4232;SDS011;2130;48.472;11.934;2022-11-15T10:45:41;5.27;;;2.13;;
4232;SDS011;2130;48.472;11.934;2022-11-15T10:48:19;3.27;;;2.60;;
4232;SDS011;2130;48.472;11.934;2022-11-15T10:50:49;3.23;;;2.23;;
4232;SDS011;2130;48.472;11.934;2022-11-15T10:53:24;4.13;;;2.70;;
4232;SDS011;2130;48.472;11.934;2022-11-15T10:55:58;3.67;;;2.27;;
4232;SDS011;2130;48.472;11.934;2022-11-15T10:58:36;3.90;;;2.60;;
4232;SDS011;2130;48.472;11.934;2022-11-15T11:01:13;4.20;;;2.53;;
4232;SDS011;2130;48.472;11.934;2022-11-15T11:03:44;2.63;;;2.20;;
4232;SDS011;2130;48.472;11.934;2022-11-15T11:06:13;3.13;;;2.27;;
4232;SDS011;2130;48.472;11.934;2022-11-15T11:08:54;3.43;;;2.17;;
4232;SDS011;2130;48.472;11.934;2022-11-15T11:11:24;3.57;;;2.40;;
4232;SDS011;2130;48.472;11.934;2022-11-15T11:13:52;2.33;;;2.00;;
4232;SDS011;2130;48.472;11.934;2022-11-15T11:22:01;5.60;;;1.90;;
4232;SDS011;2130;48.472;11.934;2022-11-15T11:24:36;3.07;;;2.13;;
4232;SDS011;2130;48.472;11.934;2022-11-15T11:27:12;3.40;;;2.33;;
4232;SDS011;2130;48.472;11.934;2022-11-15T11:29:57;3.10;;;2.00;;
4232;SDS011;2130;48.472;11.934;2022-11-15T11:32:34;2.90;;;1.97;;
4232;SDS011;2130;48.472;11.934;2022-11-15T11:35:11;2.90;;;1.80;;
4232;SDS011;2130;48.472;11.934;2022-11-15T11:37:43;1.87;;;1.73;;
4232;SDS011;2130;48.472;11.934;2022-11-15T11:40:19;1.70;;;1.60;;
4232;SDS011;2130;48.472;11.934;2022-11-15T11:42:55;2.20;;;1.67;;
4232;SDS011;2130;48.472;11.934;2022-11-15T11:45:41;2.07;;;1.63;;
4232;SDS011;2130;48.472;11.934;2022-11-15T11:48:20;1.80;;;1.57;;
4232;SDS011;2130;48.472;11.934;2022-11-15T11:50:51;2.00;;;1.43;;
4232;SDS011;2130;48.472;11.934;2022-11-15T11:53:22;1.40;;;1.30;;
4232;SDS011;2130;48.472;11.934;2022-11-15T11:55:56;1.63;;;1.40;;
4232;SDS011;2130;48.472;11.934;2022-11-15T11:58:28;1.43;;;1.33;;
4232;SDS011;2130;48.472;11.934;2022-11-15T12:01:05;2.67;;;1.53;;
4232;SDS011;2130;48.472;11.934;2022-11-15T12:03:40;3.03;;;1.70;;
4232;SDS011;2130;48.472;11.934;2022-11-15T12:06:15;1.80;;;1.40;;
4232;SDS011;2130;48.472;11.934;2022-11-15T12:08:50;2.83;;;1.87;;
4232;SDS011;2130;48.472;11.934;2022-11-15T12:11:24;1.60;;;1.47;;
4232;SDS011;2130;48.472;11.934;2022-11-15T12:13:57;1.73;;;1.27;;
4232;SDS011;2130;48.472;11.934;2022-11-15T12:16:27;2.10;;;1.50;;
4232;SDS011;2130;48.472;11.934;2022-11-15T12:18:56;1.60;;;1.50;;
4232;SDS011;2130;48.472;11.934;2022-11-15T12:21:29;3.80;;;1.87;;
4232;SDS011;2130;48.472;11.934;2022-11-15T12:24:04;1.43;;;1.30;;
4232;SDS011;2130;48.472;11.934;2022-11-15T12:26:37;1.77;;;1.60;;
4232;SDS011;2130;48.472;11.934;2022-11-15T12:29:09;1.53;;;1.43;;
4232;SDS011;2130;48.472;11.934;2022-11-15T12:31:41;1.97;;;1.50;;
4232;SDS011;2130;48.472;11.934;2022-11-15T12:34:13;1.73;;;1.23;;
4232;SDS011;2130;48.472;11.934;2022-11-15T12:36:57;1.90;;;1.30;;
4232;SDS011;2130;48.472;11.934;2022-11-15T12:42:39;3.47;;;1.67;;
4232;SDS011;2130;48.472;11.934;2022-11-15T12:45:24;2.10;;;1.70;;
4232;SDS011;2130;48.472;11.934;2022-11-15T12:47:55;1.60;;;1.40;;
4232;SDS011;2130;48.472;11.934;2022-11-15T12:50:52;2.27;;;1.50;;
4232;SDS011;2130;48.472;11.934;2022-11-15T12:53:27;1.47;;;1.30;;
4232;SDS011;2130;48.472;11.934;2022-11-15T12:56:09;1.50;;;1.30;;
4232;SDS011;2130;48.472;11.934;2022-11-15T12:58:49;2.53;;;1.53;;
4232;SDS011;2130;48.472;11.934;2022-11-15T13:04:22;1.40;;;1.30;;
4232;SDS011;2130;48.472;11.934;2022-11-15T13:06:53;2.10;;;1.70;;
4232;SDS011;2130;48.472;11.934;2022-11-15T13:15:33;1.93;;;1.30;;
4232;SDS011;2130;48.472;11.934;2022-11-15T13:18:26;1.40;;;1.20;;
4232;SDS011;2130;48.472;11.934;2022-11-15T13:21:04;1.47;;;1.37;;
4232;SDS011;2130;48.472;11.934;2022-11-15T13:23:58;2.50;;;1.57;;
4232;SDS011;2130;48.472;11.934;2022-11-15T13:26:26;1.67;;;1.30;;
4232;SDS011;2130;48.472;11.934;2022-11-15T13:28:55;4.53;;;1.80;;
4232;SDS011;2130;48.472;11.934;2022-11-15T13:31:29;2.37;;;1.60;;
4232;SDS011;2130;48.472;11.934;2022-11-15T13:34:03;2.13;;;1.60;;
4232;SDS011;2130;48.472;11.934;2022-11-15T13:37:01;1.47;;;1.37;;
4232;SDS011;2130;48.472;11.934;2022-11-15T13:39:30;2.13;;;1.80;;
4232;SDS011;2130;48.472;11.934;2022-11-15T13:42:00;1.77;;;1.43;;
4232;SDS011;2130;48.472;11.934;2022-11-15T13:44:29;3.03;;;2.00;;
4232;SDS011;2130;48.472;11.934;2022-11-15T13:47:03;2.67;;;1.77;;
4232;SDS011;2130;48.472;11.934;2022-11-15T13:49:33;2.67;;;1.10;;
4232;SDS011;2130;48.472;11.934;2022-11-15T13:52:31;2.13;;;1.60;;
4232;SDS011;2130;48.472;11.934;2022-11-15T13:55:02;3.20;;;2.13;;
4232;SDS011;2130;48.472;11.934;2022-11-15T13:57:36;2.67;;;2.00;;
4232;SDS011;2130;48.472;11.934;2022-11-15T14:00:24;5.57;;;2.10;;
4232;SDS011;2130;48.472;11.934;2022-11-15T14:02:55;4.50;;;1.83;;
4232;SDS011;2130;48.472;11.934;2022-11-15T14:05:24;4.10;;;2.27;;
4232;SDS011;2130;48.472;11.934;2022-11-15T14:07:53;2.20;;;2.00;;
4232;SDS011;2130;48.472;11.934;2022-11-15T14:10:25;2.53;;;1.90;;
4232;SDS011;2130;48.472;11.934;2022-11-15T14:12:55;3.20;;;2.23;;
4232;SDS011;2130;48.472;11.934;2022-11-15T14:15:28;2.33;;;1.43;;
4232;SDS011;2130;48.472;11.934;2022-11-15T14:18:00;4.33;;;1.90;;
4232;SDS011;2130;48.472;11.934;2022-11-15T14:20:29;2.70;;;2.50;;
4232;SDS011;2130;48.472;11.934;2022-11-15T14:22:59;3.40;;;2.37;;
4232;SDS011;2130;48.472;11.934;2022-11-15T14:25:28;4.27;;;2.40;;
4232;SDS011;2130;48.472;11.934;2022-11-15T14:28:11;2.77;;;2.00;;
4232;SDS011;2130;48.472;11.934;2022-11-15T14:30:43;4.23;;;1.90;;
4232;SDS011;2130;48.472;11.934;2022-11-15T14:33:22;2.90;;;1.80;;
4232;SDS011;2130;48.472;11.934;2022-11-15T14:36:15;3.50;;;1.80;;
4232;SDS011;2130;48.472;11.934;2022-11-15T14:38:44;4.07;;;2.00;;
4232;SDS011;2130;48.472;11.934;2022-11-15T14:41:17;1.80;;;1.63;;
4232;SDS011;2130;48.472;11.934;2022-11-15T14:43:46;5.80;;;2.23;;
4232;SDS011;2130;48.472;11.934;2022-11-15T14:46:14;2.27;;;1.67;;
4232;SDS011;2130;48.472;11.934;2022-11-15T14:48:44;3.10;;;2.10;;
4232;SDS011;2130;48.472;11.934;2022-11-15T14:51:13;2.07;;;1.87;;
4232;SDS011;2130;48.472;11.934;2022-11-15T14:53:42;2.23;;;1.90;;
4232;SDS011;2130;48.472;11.934;2022-11-15T14:56:11;5.57;;;1.93;;
4232;SDS011;2130;48.472;11.934;2022-11-15T14:58:39;2.87;;;1.90;;
4232;SDS011;2130;48.472;11.934;2022-11-15T15:01:12;2.00;;;1.70;;
4232;SDS011;2130;48.472;11.934;2022-11-15T15:03:42;2.73;;;1.40;;
4232;SDS011;2130;48.472;11.934;2022-11-15T15:06:13;6.07;;;1.80;;
4232;SDS011;2130;48.472;11.934;2022-11-15T15:08:46;4.83;;;1.90;;
4232;SDS011;2130;48.472;11.934;2022-11-15T15:11:23;3.03;;;2.40;;
4232;SDS011;2130;48.472;11.934;2022-11-15T15:14:05;4.90;;;1.70;;
4232;SDS011;2130;48.472;11.934;2022-11-15T15:16:34;3.00;;;2.00;;
4232;SDS011;2130;48.472;11.934;2022-11-15T15:19:05;3.27;;;1.77;;
4232;SDS011;2130;48.472;11.934;2022-11-15T15:21:37;3.13;;;2.37;;
4232;SDS011;2130;48.472;11.934;2022-11-15T15:24:08;5.43;;;2.13;;
4232;SDS011;2130;48.472;11.934;2022-11-15T15:26:41;2.83;;;2.20;;
4232;SDS011;2130;48.472;11.934;2022-11-15T15:29:13;2.10;;;1.60;;
4232;SDS011;2130;48.472;11.934;2022-11-15T15:31:41;4.40;;;2.30;;
4232;SDS011;2130;48.472;11.934;2022-11-15T15:34:09;3.50;;;1.87;;
4232;SDS011;2130;48.472;11.934;2022-11-15T15:36:44;3.93;;;1.83;;
4232;SDS011;2130;48.472;11.934;2022-11-15T15:39:12;3.57;;;2.20;;
4232;SDS011;2130;48.472;11.934;2022-11-15T15:41:40;2.97;;;2.20;;
4232;SDS011;2130;48.472;11.934;2022-11-15T15:44:08;4.97;;;2.33;;
4232;SDS011;2130;48.472;11.934;2022-11-15T15:46:36;3.90;;;2.30;;
4232;SDS011;2130;48.472;11.934;2022-11-15T15:49:05;2.60;;;1.60;;
4232;SDS011;2130;48.472;11.934;2022-11-15T15:51:38;5.07;;;2.80;;
4232;SDS011;2130;48.472;11.934;2022-11-15T15:54:07;5.60;;;2.20;;
4232;SDS011;2130;48.472;11.934;2022-11-15T15:56:35;3.57;;;2.67;;
4232;SDS011;2130;48.472;11.934;2022-11-15T15:59:04;4.70;;;2.40;;
4232;SDS011;2130;48.472;11.934;2022-11-15T16:01:32;4.83;;;2.50;;
4232;SDS011;2130;48.472;11.934;2022-11-15T16:04:00;6.17;;;2.70;;
4232;SDS011;2130;48.472;11.934;2022-11-15T16:06:32;4.03;;;2.67;;
4232;SDS011;2130;48.472;11.934;2022-11-15T16:09:02;4.50;;;2.87;;
4232;SDS011;2130;48.472;11.934;2022-11-15T16:11:43;3.70;;;2.43;;
4232;SDS011;2130;48.472;11.934;2022-11-15T16:14:15;3.90;;;2.77;;
4232;SDS011;2130;48.472;11.934;2022-11-15T16:16:43;4.80;;;2.30;;
4232;SDS011;2130;48.472;11.934;2022-11-15T16:19:11;6.43;;;2.20;;
4232;SDS011;2130;48.472;11.934;2022-11-15T16:21:39;2.13;;;1.60;;
4232;SDS011;2130;48.472;11.934;2022-11-15T16:24:10;3.70;;;2.30;;
4232;SDS011;2130;48.472;11.934;2022-11-15T16:26:38;14.57;;;3.43;;
4232;SDS011;2130;48.472;11.934;2022-11-15T16:29:08;6.00;;;2.87;;
4232;SDS011;2130;48.472;11.934;2022-11-15T16:31:38;4.03;;;2.20;;
4232;SDS011;2130;48.472;11.934;2022-11-15T16:34:08;5.00;;;2.20;;
4232;SDS011;2130;48.472;11.934;2022-11-15T16:36:36;6.53;;;2.50;;
4232;SDS011;2130;48.472;11.934;2022-11-15T16:39:04;4.80;;;2.33;;
4232;SDS011;2130;48.472;11.934;2022-11-15T16:41:33;3.37;;;1.87;;
4232;SDS011;2130;48.472;11.934;2022-11-15T16:44:01;4.50;;;2.20;;
4232;SDS011;2130;48.472;11.934;2022-11-15T16:46:30;4.03;;;2.00;;
4232;SDS011;2130;48.472;11.934;2022-11-15T16:48:58;4.33;;;1.90;;
4232;SDS011;2130;48.472;11.934;2022-11-15T16:51:27;5.40;;;2.00;;
4232;SDS011;2130;48.472;11.934;2022-11-15T16:53:55;7.23;;;2.67;;
4232;SDS011;2130;48.472;11.934;2022-11-15T16:56:24;4.07;;;2.33;;